sensor_id;sensor_type;location;lat;lon;timestamp;P1;durP1;ratioP1;P2;durP2;ratioP2
20535;SDS011;10426;49.420;8.390;2022-09-30T00:00:17;3.40;;;3.10;;
20535;SDS011;10426;49.420;8.390;2022-09-30T00:02:44;3.17;;;2.88;;
20535;SDS011;10426;49.420;8.390;2022-09-30T00:05:12;3.83;;;3.10;;
20535;SDS011;10426;49.420;8.390;2022-09-30T00:07:39;3.17;;;2.88;;
20535;SDS011;10426;49.420;8.390;2022-09-30T00:10:06;3.80;;;3.30;;
20535;SDS011;10426;49.420;8.390;2022-09-30T00:12:33;3.43;;;3.07;;
20535;SDS011;10426;49.420;8.390;2022-09-30T00:14:59;3.08;;;2.88;;
20535;SDS011;10426;49.420;8.390;2022-09-30T00:17:26;3.78;;;3.03;;
20535;SDS011;10426;49.420;8.390;2022-09-30T00:19:53;3.22;;;2.90;;
20535;SDS011;10426;49.420;8.390;2022-09-30T00:22:21;3.30;;;3.00;;
20535;SDS011;10426;49.420;8.390;2022-09-30T00:24:48;3.13;;;2.90;;
20535;SDS011;10426;49.420;8.390;2022-09-30T00:27:15;4.35;;;3.10;;
20535;SDS011;10426;49.420;8.390;2022-09-30T00:29:42;3.17;;;2.83;;
20535;SDS011;10426;49.420;8.390;2022-09-30T00:32:09;3.13;;;2.83;;
20535;SDS011;10426;49.420;8.390;2022-09-30T00:34:36;3.53;;;2.80;;
20535;SDS011;10426;49.420;8.390;2022-09-30T00:37:03;2.97;;;2.78;;
20535;SDS011;10426;49.420;8.390;2022-09-30T00:39:31;3.08;;;2.78;;
20535;SDS011;10426;49.420;8.390;2022-09-30T00:41:58;3.13;;;2.88;;
20535;SDS011;10426;49.420;8.390;2022-09-30T00:47:30;3.27;;;2.60;;
20535;SDS011;10426;49.420;8.390;2022-09-30T00:49:58;2.78;;;2.58;;
20535;SDS011;10426;49.420;8.390;2022-09-30T00:52:26;3.33;;;2.67;;
20535;SDS011;10426;49.420;8.390;2022-09-30T00:54:55;3.10;;;2.80;;
20535;SDS011;10426;49.420;8.390;2022-09-30T00:57:22;3.10;;;2.80;;
20535;SDS011;10426;49.420;8.390;2022-09-30T00:59:49;2.75;;;2.53;;
20535;SDS011;10426;49.420;8.390;2022-09-30T01:02:17;3.47;;;2.90;;
20535;SDS011;10426;49.420;8.390;2022-09-30T01:04:43;3.08;;;2.88;;
20535;SDS011;10426;49.420;8.390;2022-09-30T01:07:11;3.13;;;2.70;;
20535;SDS011;10426;49.420;8.390;2022-09-30T01:09:39;3.17;;;2.63;;
20535;SDS011;10426;49.420;8.390;2022-09-30T01:12:08;2.60;;;2.38;;
20535;SDS011;10426;49.420;8.390;2022-09-30T01:14:36;2.60;;;2.40;;
20535;SDS011;10426;49.420;8.390;2022-09-30T01:17:04;2.90;;;2.60;;
20535;SDS011;10426;49.420;8.390;2022-09-30T01:19:40;2.70;;;2.50;;
20535;SDS011;10426;49.420;8.390;2022-09-30T01:22:16;2.97;;;2.40;;
20535;SDS011;10426;49.420;8.390;2022-09-30T01:24:47;2.70;;;2.50;;
20535;SDS011;10426;49.420;8.390;2022-09-30T01:27:24;2.92;;;2.60;;
20535;SDS011;10426;49.420;8.390;2022-09-30T01:30:02;2.88;;;2.67;;
20535;SDS011;10426;49.420;8.390;2022-09-30T01:32:44;2.42;;;2.33;;
20535;SDS011;10426;49.420;8.390;2022-09-30T01:35:16;2.83;;;2.63;;
20535;SDS011;10426;49.420;8.390;2022-09-30T01:37:51;3.85;;;2.60;;
20535;SDS011;10426;49.420;8.390;2022-09-30T01:40:22;3.08;;;2.75;;
20535;SDS011;10426;49.420;8.390;2022-09-30T01:42:52;2.95;;;2.70;;
20535;SDS011;10426;49.420;8.390;2022-09-30T01:45:22;4.45;;;2.75;;
20535;SDS011;10426;49.420;8.390;2022-09-30T01:47:54;2.88;;;2.50;;
20535;SDS011;10426;49.420;8.390;2022-09-30T01:50:26;3.00;;;2.70;;
20535;SDS011;10426;49.420;8.390;2022-09-30T01:52:55;2.72;;;2.40;;
20535;SDS011;10426;49.420;8.390;2022-09-30T01:55:24;3.10;;;2.58;;
20535;SDS011;10426;49.420;8.390;2022-09-30T01:57:56;4.13;;;2.75;;
20535;SDS011;10426;49.420;8.390;2022-09-30T02:00:25;2.75;;;2.38;;
20535;SDS011;10426;49.420;8.390;2022-09-30T02:02:54;2.70;;;2.50;;
20535;SDS011;10426;49.420;8.390;2022-09-30T02:05:23;4.57;;;2.58;;
20535;SDS011;10426;49.420;8.390;2022-09-30T02:07:53;2.78;;;2.45;;
20535;SDS011;10426;49.420;8.390;2022-09-30T02:10:22;2.70;;;2.50;;
20535;SDS011;10426;49.420;8.390;2022-09-30T02:12:50;2.50;;;2.30;;
20535;SDS011;10426;49.420;8.390;2022-09-30T02:15:20;3.05;;;2.78;;
20535;SDS011;10426;49.420;8.390;2022-09-30T02:17:48;2.85;;;2.65;;
20535;SDS011;10426;49.420;8.390;2022-09-30T02:20:18;3.22;;;2.40;;
20535;SDS011;10426;49.420;8.390;2022-09-30T02:22:47;3.10;;;2.60;;
20535;SDS011;10426;49.420;8.390;2022-09-30T02:25:16;2.88;;;2.50;;
20535;SDS011;10426;49.420;8.390;2022-09-30T02:27:47;3.60;;;2.60;;
20535;SDS011;10426;49.420;8.390;2022-09-30T02:30:16;2.60;;;2.40;;
20535;SDS011;10426;49.420;8.390;2022-09-30T02:32:43;2.93;;;2.57;;
20535;SDS011;10426;49.420;8.390;2022-09-30T02:35:15;2.83;;;2.60;;
20535;SDS011;10426;49.420;8.390;2022-09-30T02:37:44;2.95;;;2.70;;
20535;SDS011;10426;49.420;8.390;2022-09-30T02:40:15;3.25;;;2.50;;
20535;SDS011;10426;49.420;8.390;2022-09-30T02:42:44;3.13;;;2.83;;
20535;SDS011;10426;49.420;8.390;2022-09-30T02:45:12;3.03;;;2.30;;
20535;SDS011;10426;49.420;8.390;2022-09-30T02:47:44;2.90;;;2.70;;
20535;SDS011;10426;49.420;8.390;2022-09-30T02:50:13;2.60;;;2.40;;
20535;SDS011;10426;49.420;8.390;2022-09-30T02:52:46;3.03;;;2.72;;
20535;SDS011;10426;49.420;8.390;2022-09-30T02:55:17;2.40;;;2.30;;
20535;SDS011;10426;49.420;8.390;2022-09-30T02:57:48;4.30;;;2.67;;
20535;SDS011;10426;49.420;8.390;2022-09-30T03:00:18;2.70;;;2.50;;
20535;SDS011;10426;49.420;8.390;2022-09-30T03:02:44;2.50;;;2.30;;
20535;SDS011;10426;49.420;8.390;2022-09-30T03:05:11;2.85;;;2.30;;
20535;SDS011;10426;49.420;8.390;2022-09-30T03:07:38;2.95;;;2.60;;
20535;SDS011;10426;49.420;8.390;2022-09-30T03:10:12;4.10;;;2.72;;
20535;SDS011;10426;49.420;8.390;2022-09-30T03:12:40;3.00;;;2.70;;
20535;SDS011;10426;49.420;8.390;2022-09-30T03:15:21;2.67;;;2.47;;
20535;SDS011;10426;49.420;8.390;2022-09-30T03:17:54;3.22;;;2.63;;
20535;SDS011;10426;49.420;8.390;2022-09-30T03:23:26;3.03;;;2.80;;
20535;SDS011;10426;49.420;8.390;2022-09-30T03:26:03;2.88;;;2.60;;
20535;SDS011;10426;49.420;8.390;2022-09-30T03:28:34;4.35;;;3.10;;
20535;SDS011;10426;49.420;8.390;2022-09-30T03:31:03;3.28;;;2.50;;
20535;SDS011;10426;49.420;8.390;2022-09-30T03:33:34;2.70;;;2.50;;
20535;SDS011;10426;49.420;8.390;2022-09-30T03:36:04;2.73;;;2.50;;
20535;SDS011;10426;49.420;8.390;2022-09-30T03:38:34;3.22;;;2.50;;
20535;SDS011;10426;49.420;8.390;2022-09-30T03:41:05;2.67;;;2.47;;
20535;SDS011;10426;49.420;8.390;2022-09-30T03:43:33;2.55;;;2.35;;
20535;SDS011;10426;49.420;8.390;2022-09-30T03:46:04;3.00;;;2.70;;
20535;SDS011;10426;49.420;8.390;2022-09-30T03:48:33;2.53;;;2.33;;
20535;SDS011;10426;49.420;8.390;2022-09-30T03:51:02;3.97;;;2.50;;
20535;SDS011;10426;49.420;8.390;2022-09-30T03:53:29;3.10;;;2.40;;
20535;SDS011;10426;49.420;8.390;2022-09-30T03:55:56;2.60;;;2.35;;
20535;SDS011;10426;49.420;8.390;2022-09-30T03:58:24;3.80;;;2.65;;
20535;SDS011;10426;49.420;8.390;2022-09-30T04:00:51;3.07;;;2.77;;
20535;SDS011;10426;49.420;8.390;2022-09-30T04:03:19;2.80;;;2.60;;
20535;SDS011;10426;49.420;8.390;2022-09-30T04:05:46;3.15;;;2.60;;
20535;SDS011;10426;49.420;8.390;2022-09-30T04:08:13;2.63;;;2.42;;
20535;SDS011;10426;49.420;8.390;2022-09-30T04:10:39;5.03;;;2.58;;
20535;SDS011;10426;49.420;8.390;2022-09-30T04:13:07;2.50;;;2.30;;
20535;SDS011;10426;49.420;8.390;2022-09-30T04:15:35;3.38;;;2.80;;
20535;SDS011;10426;49.420;8.390;2022-09-30T04:18:02;4.32;;;3.42;;
20535;SDS011;10426;49.420;8.390;2022-09-30T04:20:29;3.80;;;3.50;;
20535;SDS011;10426;49.420;8.390;2022-09-30T04:22:56;3.83;;;3.40;;
20535;SDS011;10426;49.420;8.390;2022-09-30T04:25:23;4.53;;;3.20;;
20535;SDS011;10426;49.420;8.390;2022-09-30T04:27:50;3.08;;;2.88;;
20535;SDS011;10426;49.420;8.390;2022-09-30T04:30:17;2.90;;;2.70;;
20535;SDS011;10426;49.420;8.390;2022-09-30T04:32:45;3.00;;;2.72;;
20535;SDS011;10426;49.420;8.390;2022-09-30T04:35:12;2.90;;;2.60;;
20535;SDS011;10426;49.420;8.390;2022-09-30T04:37:40;2.75;;;2.55;;
20535;SDS011;10426;49.420;8.390;2022-09-30T04:40:07;3.70;;;2.80;;
20535;SDS011;10426;49.420;8.390;2022-09-30T04:42:34;3.08;;;2.83;;
20535;SDS011;10426;49.420;8.390;2022-09-30T04:45:01;3.83;;;3.22;;
20535;SDS011;10426;49.420;8.390;2022-09-30T04:47:28;3.58;;;3.28;;
20535;SDS011;10426;49.420;8.390;2022-09-30T04:49:56;3.80;;;3.50;;
20535;SDS011;10426;49.420;8.390;2022-09-30T04:52:23;5.18;;;3.30;;
20535;SDS011;10426;49.420;8.390;2022-09-30T04:54:50;3.97;;;3.10;;
20535;SDS011;10426;49.420;8.390;2022-09-30T04:57:17;4.03;;;3.15;;
20535;SDS011;10426;49.420;8.390;2022-09-30T04:59:43;3.83;;;3.00;;
20535;SDS011;10426;49.420;8.390;2022-09-30T05:02:10;3.30;;;3.00;;
20535;SDS011;10426;49.420;8.390;2022-09-30T05:04:38;3.00;;;2.80;;
20535;SDS011;10426;49.420;8.390;2022-09-30T05:07:06;3.67;;;2.83;;
20535;SDS011;10426;49.420;8.390;2022-09-30T05:09:33;3.55;;;2.67;;
20535;SDS011;10426;49.420;8.390;2022-09-30T05:12:00;2.83;;;2.60;;
20535;SDS011;10426;49.420;8.390;2022-09-30T05:14:27;4.03;;;3.63;;
20535;SDS011;10426;49.420;8.390;2022-09-30T05:16:54;4.18;;;3.60;;
20535;SDS011;10426;49.420;8.390;2022-09-30T05:19:21;5.40;;;4.90;;
20535;SDS011;10426;49.420;8.390;2022-09-30T05:21:48;4.75;;;4.30;;
20535;SDS011;10426;49.420;8.390;2022-09-30T05:24:17;5.20;;;4.03;;
20535;SDS011;10426;49.420;8.390;2022-09-30T05:26:44;3.78;;;3.47;;
20535;SDS011;10426;49.420;8.390;2022-09-30T05:29:11;5.65;;;3.65;;
20535;SDS011;10426;49.420;8.390;2022-09-30T05:31:38;5.57;;;4.10;;
20535;SDS011;10426;49.420;8.390;2022-09-30T05:34:06;4.20;;;3.80;;
20535;SDS011;10426;49.420;8.390;2022-09-30T05:36:33;3.47;;;3.03;;
20535;SDS011;10426;49.420;8.390;2022-09-30T05:39:00;3.55;;;3.10;;
20535;SDS011;10426;49.420;8.390;2022-09-30T05:41:28;4.93;;;3.22;;
20535;SDS011;10426;49.420;8.390;2022-09-30T05:43:55;3.83;;;3.40;;
20535;SDS011;10426;49.420;8.390;2022-09-30T05:46:25;4.63;;;3.72;;
20535;SDS011;10426;49.420;8.390;2022-09-30T05:48:52;5.10;;;4.00;;
20535;SDS011;10426;49.420;8.390;2022-09-30T05:51:19;6.03;;;3.95;;
20535;SDS011;10426;49.420;8.390;2022-09-30T05:53:45;4.03;;;3.50;;
20535;SDS011;10426;49.420;8.390;2022-09-30T05:56:12;4.50;;;3.85;;
20535;SDS011;10426;49.420;8.390;2022-09-30T05:58:40;4.72;;;3.17;;
20535;SDS011;10426;49.420;8.390;2022-09-30T06:01:08;4.93;;;3.15;;
20535;SDS011;10426;49.420;8.390;2022-09-30T06:03:35;5.15;;;3.30;;
20535;SDS011;10426;49.420;8.390;2022-09-30T06:06:02;3.60;;;3.30;;
20535;SDS011;10426;49.420;8.390;2022-09-30T06:08:29;4.22;;;3.30;;
20535;SDS011;10426;49.420;8.390;2022-09-30T06:10:56;4.03;;;3.25;;
20535;SDS011;10426;49.420;8.390;2022-09-30T06:13:24;3.67;;;3.27;;
20535;SDS011;10426;49.420;8.390;2022-09-30T06:15:55;2.92;;;2.72;;
20535;SDS011;10426;49.420;8.390;2022-09-30T06:18:22;3.60;;;3.28;;
20535;SDS011;10426;49.420;8.390;2022-09-30T06:20:49;3.97;;;3.37;;
20535;SDS011;10426;49.420;8.390;2022-09-30T06:23:16;3.65;;;3.30;;
20535;SDS011;10426;49.420;8.390;2022-09-30T06:25:43;3.63;;;3.33;;
20535;SDS011;10426;49.420;8.390;2022-09-30T06:28:11;4.15;;;3.72;;
20535;SDS011;10426;49.420;8.390;2022-09-30T06:30:38;3.90;;;3.60;;
20535;SDS011;10426;49.420;8.390;2022-09-30T06:33:06;4.25;;;3.85;;
20535;SDS011;10426;49.420;8.390;2022-09-30T06:35:32;4.85;;;3.75;;
20535;SDS011;10426;49.420;8.390;2022-09-30T06:37:59;3.90;;;3.50;;
20535;SDS011;10426;49.420;8.390;2022-09-30T06:40:26;5.28;;;3.72;;
20535;SDS011;10426;49.420;8.390;2022-09-30T06:42:56;5.18;;;4.10;;
20535;SDS011;10426;49.420;8.390;2022-09-30T06:45:23;4.60;;;4.20;;
20535;SDS011;10426;49.420;8.390;2022-09-30T06:47:50;4.05;;;3.65;;
20535;SDS011;10426;49.420;8.390;2022-09-30T06:50:18;4.63;;;4.10;;
20535;SDS011;10426;49.420;8.390;2022-09-30T06:52:46;4.47;;;4.00;;
20535;SDS011;10426;49.420;8.390;2022-09-30T06:55:13;4.20;;;3.80;;
20535;SDS011;10426;49.420;8.390;2022-09-30T06:57:40;4.90;;;4.32;;
20535;SDS011;10426;49.420;8.390;2022-09-30T07:00:08;5.53;;;4.20;;
20535;SDS011;10426;49.420;8.390;2022-09-30T07:02:35;4.45;;;4.00;;
20535;SDS011;10426;49.420;8.390;2022-09-30T07:05:03;5.07;;;4.15;;
20535;SDS011;10426;49.420;8.390;2022-09-30T07:07:31;4.57;;;4.07;;
20535;SDS011;10426;49.420;8.390;2022-09-30T07:09:59;4.65;;;4.15;;
20535;SDS011;10426;49.420;8.390;2022-09-30T07:12:25;4.27;;;3.87;;
20535;SDS011;10426;49.420;8.390;2022-09-30T07:14:52;5.23;;;4.70;;
20535;SDS011;10426;49.420;8.390;2022-09-30T07:17:19;5.15;;;4.65;;
20535;SDS011;10426;49.420;8.390;2022-09-30T07:19:45;5.57;;;4.88;;
20535;SDS011;10426;49.420;8.390;2022-09-30T07:22:12;5.20;;;4.70;;
20535;SDS011;10426;49.420;8.390;2022-09-30T07:24:57;6.00;;;5.00;;
20535;SDS011;10426;49.420;8.390;2022-09-30T07:27:24;5.55;;;4.75;;
20535;SDS011;10426;49.420;8.390;2022-09-30T07:29:52;6.25;;;4.75;;
20535;SDS011;10426;49.420;8.390;2022-09-30T07:32:21;6.45;;;5.32;;
20535;SDS011;10426;49.420;8.390;2022-09-30T07:34:48;6.38;;;4.90;;
20535;SDS011;10426;49.420;8.390;2022-09-30T07:37:15;5.30;;;4.80;;
20535;SDS011;10426;49.420;8.390;2022-09-30T07:39:43;5.80;;;5.10;;
20535;SDS011;10426;49.420;8.390;2022-09-30T07:42:12;5.80;;;5.20;;
20535;SDS011;10426;49.420;8.390;2022-09-30T07:44:39;6.40;;;5.80;;
20535;SDS011;10426;49.420;8.390;2022-09-30T07:47:06;7.00;;;5.38;;
20535;SDS011;10426;49.420;8.390;2022-09-30T07:49:34;8.27;;;5.90;;
20535;SDS011;10426;49.420;8.390;2022-09-30T07:52:01;7.30;;;6.07;;
20535;SDS011;10426;49.420;8.390;2022-09-30T07:54:28;6.72;;;6.03;;
20535;SDS011;10426;49.420;8.390;2022-09-30T07:56:55;7.47;;;6.55;;
20535;SDS011;10426;49.420;8.390;2022-09-30T07:59:24;8.43;;;5.97;;
20535;SDS011;10426;49.420;8.390;2022-09-30T08:01:51;7.00;;;5.70;;
20535;SDS011;10426;49.420;8.390;2022-09-30T08:04:18;7.05;;;5.68;;
20535;SDS011;10426;49.420;8.390;2022-09-30T08:06:46;13.98;;;11.10;;
20535;SDS011;10426;49.420;8.390;2022-09-30T08:09:13;6.63;;;5.43;;
20535;SDS011;10426;49.420;8.390;2022-09-30T08:11:41;13.27;;;5.25;;
20535;SDS011;10426;49.420;8.390;2022-09-30T08:14:10;7.10;;;5.97;;
20535;SDS011;10426;49.420;8.390;2022-09-30T08:16:39;7.38;;;5.78;;
20535;SDS011;10426;49.420;8.390;2022-09-30T08:19:06;5.70;;;5.10;;
20535;SDS011;10426;49.420;8.390;2022-09-30T08:21:33;7.17;;;5.20;;
20535;SDS011;10426;49.420;8.390;2022-09-30T08:24:00;5.40;;;4.90;;
20535;SDS011;10426;49.420;8.390;2022-09-30T08:26:28;5.10;;;4.60;;
20535;SDS011;10426;49.420;8.390;2022-09-30T08:28:55;5.55;;;5.05;;
20535;SDS011;10426;49.420;8.390;2022-09-30T08:31:22;5.53;;;5.00;;
20535;SDS011;10426;49.420;8.390;2022-09-30T08:33:50;5.97;;;4.90;;
20535;SDS011;10426;49.420;8.390;2022-09-30T08:36:19;6.75;;;5.50;;
20535;SDS011;10426;49.420;8.390;2022-09-30T08:38:46;6.30;;;4.90;;
20535;SDS011;10426;49.420;8.390;2022-09-30T08:41:16;6.55;;;4.80;;
20535;SDS011;10426;49.420;8.390;2022-09-30T08:43:50;5.57;;;4.90;;
20535;SDS011;10426;49.420;8.390;2022-09-30T08:46:21;6.75;;;5.60;;
20535;SDS011;10426;49.420;8.390;2022-09-30T08:48:55;6.13;;;5.15;;
20535;SDS011;10426;49.420;8.390;2022-09-30T08:51:29;5.68;;;4.70;;
20535;SDS011;10426;49.420;8.390;2022-09-30T08:53:58;5.78;;;4.68;;
20535;SDS011;10426;49.420;8.390;2022-09-30T08:56:28;6.38;;;4.60;;
20535;SDS011;10426;49.420;8.390;2022-09-30T08:58:57;6.07;;;4.68;;
20535;SDS011;10426;49.420;8.390;2022-09-30T09:01:27;6.53;;;4.00;;
20535;SDS011;10426;49.420;8.390;2022-09-30T09:03:57;7.07;;;4.82;;
20535;SDS011;10426;49.420;8.390;2022-09-30T09:06:25;5.72;;;5.10;;
20535;SDS011;10426;49.420;8.390;2022-09-30T09:09:01;5.68;;;5.10;;
20535;SDS011;10426;49.420;8.390;2022-09-30T09:11:35;5.45;;;4.60;;
20535;SDS011;10426;49.420;8.390;2022-09-30T09:14:05;5.28;;;4.78;;
20535;SDS011;10426;49.420;8.390;2022-09-30T09:16:38;6.45;;;5.00;;
20535;SDS011;10426;49.420;8.390;2022-09-30T09:19:10;5.60;;;5.00;;
20535;SDS011;10426;49.420;8.390;2022-09-30T09:21:41;8.10;;;4.95;;
20535;SDS011;10426;49.420;8.390;2022-09-30T09:24:13;6.50;;;5.00;;
20535;SDS011;10426;49.420;8.390;2022-09-30T09:26:41;7.70;;;5.33;;
20535;SDS011;10426;49.420;8.390;2022-09-30T09:29:21;6.03;;;4.72;;
20535;SDS011;10426;49.420;8.390;2022-09-30T09:31:49;5.10;;;4.60;;
20535;SDS011;10426;49.420;8.390;2022-09-30T09:34:18;5.57;;;4.70;;
20535;SDS011;10426;49.420;8.390;2022-09-30T09:36:47;8.10;;;5.10;;
20535;SDS011;10426;49.420;8.390;2022-09-30T09:42:09;6.50;;;5.10;;
20535;SDS011;10426;49.420;8.390;2022-09-30T09:44:43;4.72;;;4.20;;
20535;SDS011;10426;49.420;8.390;2022-09-30T09:47:14;4.82;;;4.00;;
20535;SDS011;10426;49.420;8.390;2022-09-30T09:49:43;5.30;;;4.80;;
20535;SDS011;10426;49.420;8.390;2022-09-30T09:54:52;6.57;;;5.07;;
20535;SDS011;10426;49.420;8.390;2022-09-30T09:57:30;5.35;;;4.85;;
20535;SDS011;10426;49.420;8.390;2022-09-30T09:59:58;5.70;;;4.72;;
20535;SDS011;10426;49.420;8.390;2022-09-30T10:02:26;5.78;;;4.30;;
20535;SDS011;10426;49.420;8.390;2022-09-30T10:04:53;6.38;;;5.05;;
20535;SDS011;10426;49.420;8.390;2022-09-30T10:07:26;6.55;;;5.10;;
20535;SDS011;10426;49.420;8.390;2022-09-30T10:10:07;7.28;;;5.38;;
20535;SDS011;10426;49.420;8.390;2022-09-30T10:12:36;6.80;;;5.50;;
20535;SDS011;10426;49.420;8.390;2022-09-30T10:15:14;5.35;;;4.20;;
20535;SDS011;10426;49.420;8.390;2022-09-30T10:17:49;5.00;;;4.47;;
20535;SDS011;10426;49.420;8.390;2022-09-30T10:20:19;4.85;;;4.43;;
20535;SDS011;10426;49.420;8.390;2022-09-30T10:22:46;6.00;;;5.40;;
20535;SDS011;10426;49.420;8.390;2022-09-30T10:25:21;4.93;;;4.43;;
20535;SDS011;10426;49.420;8.390;2022-09-30T10:27:54;6.05;;;4.60;;
20535;SDS011;10426;49.420;8.390;2022-09-30T10:33:13;7.05;;;4.95;;
20535;SDS011;10426;49.420;8.390;2022-09-30T10:35:48;5.50;;;4.90;;
20535;SDS011;10426;49.420;8.390;2022-09-30T10:38:15;5.10;;;4.60;;
20535;SDS011;10426;49.420;8.390;2022-09-30T10:40:42;5.63;;;5.03;;
20535;SDS011;10426;49.420;8.390;2022-09-30T10:43:30;5.28;;;4.68;;
20535;SDS011;10426;49.420;8.390;2022-09-30T10:45:57;6.47;;;4.77;;
20535;SDS011;10426;49.420;8.390;2022-09-30T10:48:28;6.22;;;4.38;;
20535;SDS011;10426;49.420;8.390;2022-09-30T10:50:56;5.28;;;4.40;;
20535;SDS011;10426;49.420;8.390;2022-09-30T10:53:24;5.25;;;4.60;;
20535;SDS011;10426;49.420;8.390;2022-09-30T10:55:51;4.00;;;3.60;;
20535;SDS011;10426;49.420;8.390;2022-09-30T10:58:21;4.80;;;3.75;;
20535;SDS011;10426;49.420;8.390;2022-09-30T11:00:49;4.88;;;3.95;;
20535;SDS011;10426;49.420;8.390;2022-09-30T11:03:19;5.25;;;4.30;;
20535;SDS011;10426;49.420;8.390;2022-09-30T11:05:48;6.07;;;5.03;;
20535;SDS011;10426;49.420;8.390;2022-09-30T11:08:16;5.90;;;4.05;;
20535;SDS011;10426;49.420;8.390;2022-09-30T11:10:46;5.28;;;4.78;;
20535;SDS011;10426;49.420;8.390;2022-09-30T11:13:14;5.90;;;4.70;;
20535;SDS011;10426;49.420;8.390;2022-09-30T11:15:47;4.15;;;3.80;;
20535;SDS011;10426;49.420;8.390;2022-09-30T11:18:20;5.00;;;4.60;;
20535;SDS011;10426;49.420;8.390;2022-09-30T11:20:49;4.55;;;4.15;;
20535;SDS011;10426;49.420;8.390;2022-09-30T11:23:20;5.47;;;4.30;;
20535;SDS011;10426;49.420;8.390;2022-09-30T11:25:51;4.77;;;4.37;;
20535;SDS011;10426;49.420;8.390;2022-09-30T11:28:30;5.72;;;3.88;;
20535;SDS011;10426;49.420;8.390;2022-09-30T11:31:03;4.80;;;4.40;;
20535;SDS011;10426;49.420;8.390;2022-09-30T11:33:36;4.82;;;4.32;;
20535;SDS011;10426;49.420;8.390;2022-09-30T11:36:08;5.50;;;4.50;;
20535;SDS011;10426;49.420;8.390;2022-09-30T11:38:47;5.25;;;4.45;;
20535;SDS011;10426;49.420;8.390;2022-09-30T11:41:17;4.25;;;3.83;;
20535;SDS011;10426;49.420;8.390;2022-09-30T11:43:50;5.38;;;3.85;;
20535;SDS011;10426;49.420;8.390;2022-09-30T11:46:25;4.40;;;4.00;;
20535;SDS011;10426;49.420;8.390;2022-09-30T11:49:03;5.00;;;3.90;;
20535;SDS011;10426;49.420;8.390;2022-09-30T11:51:30;5.13;;;4.50;;
20535;SDS011;10426;49.420;8.390;2022-09-30T11:54:02;5.25;;;3.72;;
20535;SDS011;10426;49.420;8.390;2022-09-30T11:56:37;4.47;;;4.07;;
20535;SDS011;10426;49.420;8.390;2022-09-30T11:59:11;3.88;;;3.58;;
20535;SDS011;10426;49.420;8.390;2022-09-30T12:01:42;4.70;;;4.30;;
20535;SDS011;10426;49.420;8.390;2022-09-30T12:04:12;3.70;;;3.37;;
20535;SDS011;10426;49.420;8.390;2022-09-30T12:06:41;3.88;;;3.40;;
20535;SDS011;10426;49.420;8.390;2022-09-30T12:09:11;3.78;;;3.38;;
20535;SDS011;10426;49.420;8.390;2022-09-30T12:11:41;4.13;;;3.38;;
20535;SDS011;10426;49.420;8.390;2022-09-30T12:14:11;3.50;;;3.15;;
20535;SDS011;10426;49.420;8.390;2022-09-30T12:16:41;4.07;;;3.67;;
20535;SDS011;10426;49.420;8.390;2022-09-30T12:19:12;4.22;;;3.80;;
20535;SDS011;10426;49.420;8.390;2022-09-30T12:21:42;3.90;;;3.60;;
20535;SDS011;10426;49.420;8.390;2022-09-30T12:24:12;4.30;;;3.78;;
20535;SDS011;10426;49.420;8.390;2022-09-30T12:26:42;4.35;;;3.95;;
20535;SDS011;10426;49.420;8.390;2022-09-30T12:29:11;3.78;;;3.47;;
20535;SDS011;10426;49.420;8.390;2022-09-30T12:32:07;4.18;;;3.50;;
20535;SDS011;10426;49.420;8.390;2022-09-30T12:34:40;4.18;;;3.35;;
20535;SDS011;10426;49.420;8.390;2022-09-30T12:37:26;3.83;;;3.47;;
20535;SDS011;10426;49.420;8.390;2022-09-30T12:43:00;3.97;;;3.03;;
20535;SDS011;10426;49.420;8.390;2022-09-30T12:45:34;4.88;;;3.20;;
20535;SDS011;10426;49.420;8.390;2022-09-30T12:48:06;3.75;;;2.72;;
20535;SDS011;10426;49.420;8.390;2022-09-30T12:50:39;3.85;;;3.25;;
20535;SDS011;10426;49.420;8.390;2022-09-30T12:53:11;2.97;;;2.78;;
20535;SDS011;10426;49.420;8.390;2022-09-30T12:55:41;3.17;;;2.90;;
20535;SDS011;10426;49.420;8.390;2022-09-30T12:58:12;3.58;;;3.10;;
20535;SDS011;10426;49.420;8.390;2022-09-30T13:00:41;3.08;;;2.88;;
20535;SDS011;10426;49.420;8.390;2022-09-30T13:03:25;3.23;;;3.00;;
20535;SDS011;10426;49.420;8.390;2022-09-30T13:05:52;4.10;;;3.13;;
20535;SDS011;10426;49.420;8.390;2022-09-30T13:08:36;3.03;;;2.70;;
20535;SDS011;10426;49.420;8.390;2022-09-30T13:11:04;4.18;;;3.33;;
20535;SDS011;10426;49.420;8.390;2022-09-30T13:13:32;4.28;;;3.15;;
20535;SDS011;10426;49.420;8.390;2022-09-30T13:16:01;3.20;;;2.90;;
20535;SDS011;10426;49.420;8.390;2022-09-30T13:21:24;3.55;;;2.60;;
20535;SDS011;10426;49.420;8.390;2022-09-30T13:23:51;4.43;;;2.88;;
20535;SDS011;10426;49.420;8.390;2022-09-30T13:26:32;3.45;;;2.97;;
20535;SDS011;10426;49.420;8.390;2022-09-30T13:34:26;3.42;;;3.13;;
20535;SDS011;10426;49.420;8.390;2022-09-30T13:37:00;3.38;;;3.03;;
20535;SDS011;10426;49.420;8.390;2022-09-30T13:39:27;5.03;;;2.83;;
20535;SDS011;10426;49.420;8.390;2022-09-30T13:41:59;4.45;;;2.55;;
20535;SDS011;10426;49.420;8.390;2022-09-30T13:44:30;2.97;;;2.40;;
20535;SDS011;10426;49.420;8.390;2022-09-30T13:46:58;2.30;;;2.10;;
20535;SDS011;10426;49.420;8.390;2022-09-30T13:49:31;2.42;;;2.22;;
20535;SDS011;10426;49.420;8.390;2022-09-30T13:52:01;2.55;;;2.03;;
20535;SDS011;10426;49.420;8.390;2022-09-30T13:54:28;2.95;;;1.90;;
20535;SDS011;10426;49.420;8.390;2022-09-30T13:56:56;3.05;;;2.30;;
20535;SDS011;10426;49.420;8.390;2022-09-30T13:59:26;2.75;;;2.30;;
20535;SDS011;10426;49.420;8.390;2022-09-30T14:02:03;2.15;;;2.05;;
20535;SDS011;10426;49.420;8.390;2022-09-30T14:04:40;2.08;;;1.98;;
20535;SDS011;10426;49.420;8.390;2022-09-30T14:07:15;2.13;;;1.93;;
20535;SDS011;10426;49.420;8.390;2022-09-30T14:09:49;2.65;;;1.80;;
20535;SDS011;10426;49.420;8.390;2022-09-30T14:12:22;2.80;;;2.33;;
20535;SDS011;10426;49.420;8.390;2022-09-30T14:17:44;3.03;;;1.77;;
20535;SDS011;10426;49.420;8.390;2022-09-30T14:20:20;2.25;;;2.05;;
20535;SDS011;10426;49.420;8.390;2022-09-30T14:22:52;2.38;;;2.13;;
20535;SDS011;10426;49.420;8.390;2022-09-30T14:25:19;2.50;;;2.20;;
20535;SDS011;10426;49.420;8.390;2022-09-30T14:27:49;2.45;;;2.22;;
20535;SDS011;10426;49.420;8.390;2022-09-30T14:30:18;2.20;;;2.10;;
20535;SDS011;10426;49.420;8.390;2022-09-30T14:32:46;1.83;;;1.73;;
20535;SDS011;10426;49.420;8.390;2022-09-30T14:35:14;1.80;;;1.70;;
20535;SDS011;10426;49.420;8.390;2022-09-30T14:37:44;2.22;;;2.03;;
20535;SDS011;10426;49.420;8.390;2022-09-30T14:40:14;2.47;;;2.08;;
20535;SDS011;10426;49.420;8.390;2022-09-30T14:42:41;2.17;;;1.98;;
20535;SDS011;10426;49.420;8.390;2022-09-30T14:45:11;2.58;;;1.90;;
20535;SDS011;10426;49.420;8.390;2022-09-30T14:47:43;1.90;;;1.80;;
20535;SDS011;10426;49.420;8.390;2022-09-30T14:50:10;3.00;;;1.90;;
20535;SDS011;10426;49.420;8.390;2022-09-30T14:52:41;2.75;;;1.90;;
20535;SDS011;10426;49.420;8.390;2022-09-30T14:55:19;1.90;;;1.80;;
20535;SDS011;10426;49.420;8.390;2022-09-30T14:57:48;1.90;;;1.80;;
20535;SDS011;10426;49.420;8.390;2022-09-30T15:00:18;2.17;;;1.98;;
20535;SDS011;10426;49.420;8.390;2022-09-30T15:02:44;1.83;;;1.73;;
20535;SDS011;10426;49.420;8.390;2022-09-30T15:05:12;1.90;;;1.80;;
20535;SDS011;10426;49.420;8.390;2022-09-30T15:07:39;2.70;;;1.80;;
20535;SDS011;10426;49.420;8.390;2022-09-30T15:10:06;2.00;;;1.80;;
20535;SDS011;10426;49.420;8.390;2022-09-30T15:12:34;1.80;;;1.70;;
20535;SDS011;10426;49.420;8.390;2022-09-30T15:17:43;1.98;;;1.88;;
20535;SDS011;10426;49.420;8.390;2022-09-30T15:20:21;2.38;;;1.77;;
20535;SDS011;10426;49.420;8.390;2022-09-30T15:22:50;3.57;;;2.10;;
20535;SDS011;10426;49.420;8.390;2022-09-30T15:25:17;1.80;;;1.70;;
20535;SDS011;10426;49.420;8.390;2022-09-30T15:27:46;2.50;;;1.73;;
20535;SDS011;10426;49.420;8.390;2022-09-30T15:30:22;1.90;;;1.80;;
20535;SDS011;10426;49.420;8.390;2022-09-30T15:32:55;3.00;;;1.88;;